Date,TemperatureHighF,TemperatureAvgF,TemperatureLowF,DewpointHighF,DewpointAvgF,DewpointLowF,HumidityHigh,HumidityAvg,HumidityLow,PressureMaxIn,PressureMinIn,WindSpeedMaxMPH,WindSpeedAvgMPH,GustSpeedMaxMPH,PrecipitationSumIn
2013-1-1,25,18,10,21,15,9,94,90,84,30.29,30.14,13,3,13,0.00
2013-1-2,29,18,9,26,16,7,94,90,80,30.23,30.11,13,4,13,0.00
2013-1-3,33,25,15,29,22,13,94,89,84,30.35,30.14,13,3,13,0.00
2013-1-4,37,24,11,32,21,10,100,90,84,30.32,30.23,14,4,14,0.00
2013-1-5,37,35,27,37,33,24,100,92,84,30.23,30.00,13,5,13,0.00
2013-1-6,37,27,20,37,24,17,100,89,84,30.35,30.00,18,4,18,0.00
2013-1-7,42,30,20,36,27,17,94,88,80,30.35,30.11,22,5,22,0.00
2013-1-8,46,37,30,39,32,26,88,84,77,30.17,30.09,14,5,14,0.00
2013-1-9,52,40,32,44,35,29,88,82,74,30.50,30.08,16,3,16,0.00
2013-1-10,52,38,29,52,35,25,100,89,80,30.50,29.82,12,3,12,1.02
2013-1-11,58,53,50,55,52,49,100,95,77,29.85,29.73,19,6,19,0.55
2013-1-12,53,41,27,50,38,25,100,88,74,30.03,29.76,18,6,18,0.00
2013-1-13,27,20,13,27,18,12,100,92,88,30.32,29.94,13,4,13,0.00
2013-1-14,27,17,12,24,15,10,94,91,84,30.47,30.29,10,1,10,0.00
2013-1-15,32,21,14,29,19,12,100,90,84,30.44,30.14,8,1,8,0.00
2013-1-16,38,28,16,33,25,14,94,87,84,30.14,29.91,17,4,17,0.00
2013-1-17,36,30,22,32,27,19,98,88,80,30.44,30.11,20,4,20,0.00
2013-1-18,46,35,21,40,31,18,94,84,77,30.44,30.03,22,6,22,0.00
2013-1-19,55,43,31,46,37,27,88,79,70,30.11,29.85,22,6,22,0.00
2013-1-20,31,19,14,27,16,12,91,89,80,30.35,30.11,20,5,20,0.00
2013-1-21,15,10,4,13,8,3,94,94,91,30.35,30.23,19,5,19,0.00
2013-1-22,18,9,1,15,8,0,94,93,91,30.41,30.32,41,2,41,0.00
2013-1-23,34,21,13,31,18,12,94,89,80,30.35,30.11,23,4,24,0.00
2013-1-24,25,17,7,20,14,6,94,90,84,30.59,30.29,17,4,17,0.00
2013-1-25,38,28,20,34,24,17,91,87,80,30.29,30.03,17,5,17,0.00
2013-1-26,34,23,12,30,20,10,94,89,80,30.41,30.23,16,3,16,0.00
2013-1-27,47,33,27,46,31,22,100,92,80,30.35,29.91,17,6,17,0.04
2013-1-28,59,52,47,59,52,47,100,100,100,29.97,29.82,15,3,15,0.00
2013-1-29,66,59,53,66,59,53,100,100,100,29.82,29.47,19,4,19,2.24
2013-1-30,53,34,18,53,34,18,100,100,98,29.79,29.32,17,2,17,0.43
2013-1-31,22,15,4,22,14,3,100,97,91,30.29,29.79,0,0,0,0.00